createdAt,value
2024-01-24T00:03:54.955Z,11.8
2024-01-24T00:23:55.253Z,12
2024-01-24T00:33:55.495Z,12.1
2024-01-24T00:43:55.620Z,12.3
2024-01-24T00:53:55.822Z,12.5
2024-01-24T01:03:56.243Z,12.6
2024-01-24T01:13:56.206Z,12.6
2024-01-24T01:23:56.446Z,12.8
2024-01-24T01:43:56.833Z,12.7
2024-01-24T02:03:57.316Z,12.4
2024-01-24T02:13:57.408Z,12.5
2024-01-24T02:23:57.638Z,12.6
2024-01-24T02:43:58.054Z,12.5
2024-01-24T03:03:58.486Z,12.5
2024-01-24T03:23:58.816Z,12.4
2024-01-24T03:43:59.219Z,12.1
2024-01-24T04:03:59.626Z,12.1
2024-01-24T04:24:00.030Z,12.2
2024-01-24T04:44:00.396Z,12.5
2024-01-24T05:04:00.840Z,12.5
2024-01-24T05:14:01.003Z,12.5
2024-01-24T05:24:01.181Z,12.6
2024-01-24T05:34:01.443Z,12.7
2024-01-24T05:44:01.623Z,12.6
2024-01-24T05:54:01.786Z,12.6
2024-01-24T06:04:02.027Z,12.6
2024-01-24T06:14:02.202Z,12.5
2024-01-24T06:24:02.370Z,12.5
2024-01-24T06:34:02.734Z,12.5
2024-01-24T06:44:02.781Z,12.4
2024-01-24T06:54:02.964Z,12.2
2024-01-24T07:04:03.229Z,12.3
2024-01-24T07:14:03.368Z,12.1
2024-01-24T07:24:03.570Z,12
2024-01-24T07:34:03.823Z,11.9
2024-01-24T07:44:03.961Z,11.7
2024-01-24T07:54:04.166Z,11.6
2024-01-24T08:04:04.616Z,11.5
2024-01-24T08:14:04.570Z,11.3
2024-01-24T08:24:04.765Z,11.3
2024-01-24T08:34:05.124Z,11.1
2024-01-24T08:44:05.171Z,11.1
2024-01-24T08:54:05.361Z,11
2024-01-24T09:04:05.618Z,11
2024-01-24T09:14:05.803Z,11.1
2024-01-24T09:24:05.963Z,11
2024-01-24T09:34:06.283Z,11.1
2024-01-24T09:44:06.365Z,11.2
2024-01-24T09:54:06.576Z,11.1
2024-01-24T10:04:06.866Z,11
2024-01-24T10:14:06.966Z,11.1
2024-01-24T10:24:07.166Z,11.1
2024-01-24T10:34:07.513Z,11.3
2024-01-24T10:44:07.616Z,11.3
2024-01-24T11:04:09.844Z,11.3
2024-01-24T11:14:08.168Z,11.3
2024-01-24T11:24:08.353Z,11.3
2024-01-24T11:34:08.738Z,11.3
2024-01-24T11:44:08.801Z,11.4
2024-01-24T11:54:08.969Z,11.3
2024-01-24T12:04:09.200Z,11.3
2024-01-24T12:14:09.352Z,11.3
2024-01-24T12:24:09.560Z,11.4
2024-01-24T12:34:09.944Z,11.2
2024-01-24T12:44:09.977Z,11.1
2024-01-24T12:54:10.149Z,11.1
2024-01-24T13:04:10.411Z,10.9
2024-01-24T13:14:10.550Z,10.9
2024-01-24T13:24:10.853Z,10.9
2024-01-24T13:34:10.993Z,10.8
2024-01-24T13:44:11.165Z,10.7
2024-01-24T13:54:11.352Z,10.7
2024-01-24T14:04:11.569Z,10.6
2024-01-24T14:14:11.747Z,10.6
2024-01-24T14:24:11.941Z,10.6
2024-01-24T14:34:12.248Z,10.5
2024-01-24T14:44:12.337Z,10.4
2024-01-24T14:54:12.562Z,10.4
2024-01-24T15:04:12.826Z,10.3
2024-01-24T15:14:12.950Z,10.2
2024-01-24T15:24:13.152Z,10.1
2024-01-24T15:34:14.721Z,10
2024-01-24T15:44:13.576Z,10
2024-01-24T15:54:13.740Z,9.9
2024-01-24T16:04:14.065Z,9.9
2024-01-24T16:14:14.156Z,9.9
2024-01-24T16:24:14.350Z,9.8
2024-01-24T16:34:14.641Z,9.8
2024-01-24T16:44:14.750Z,9.7
2024-01-24T16:54:14.954Z,9.7
2024-01-24T17:04:15.217Z,9.6
2024-01-24T17:14:15.363Z,9.5
2024-01-24T17:24:15.556Z,9.4
2024-01-24T17:34:15.880Z,9.4
2024-01-24T17:54:16.185Z,9.4
2024-01-24T18:04:16.442Z,9.4
2024-01-24T18:14:16.553Z,9.4
2024-01-24T18:24:16.750Z,9.4
2024-01-24T18:34:16.997Z,9.4
2024-01-24T18:44:17.169Z,9.5
2024-01-24T18:54:17.354Z,9.4
2024-01-24T19:04:17.675Z,9.4
2024-01-24T19:14:17.772Z,9.3
2024-01-24T19:24:17.965Z,9.2
2024-01-24T19:34:18.232Z,9.1
2024-01-24T19:44:18.410Z,9.1
2024-01-24T19:54:18.553Z,9
2024-01-24T20:04:18.771Z,9.1
2024-01-24T20:14:18.984Z,9.1
2024-01-24T20:24:19.225Z,9.1
2024-01-24T20:34:19.491Z,9
2024-01-24T20:44:19.590Z,9
2024-01-24T20:54:19.777Z,9
2024-01-24T21:04:20.015Z,9
2024-01-24T21:14:20.167Z,9
2024-01-24T21:24:20.368Z,8.9
2024-01-24T21:34:20.596Z,8.8
2024-01-24T21:44:20.761Z,8.7
2024-01-24T21:54:20.976Z,8.7
2024-01-24T22:04:21.207Z,8.5
2024-01-24T22:14:21.390Z,8.5
2024-01-24T22:24:21.579Z,8.3
2024-01-24T22:34:22.200Z,8.2
2024-01-24T22:44:22.026Z,8.1
2024-01-24T22:54:22.187Z,8
2024-01-24T23:04:22.429Z,8.1
2024-01-24T23:14:22.597Z,8.1
2024-01-24T23:24:22.781Z,8.1
2024-01-24T23:34:23.140Z,8.1
2024-01-24T23:44:23.192Z,8
2024-01-24T23:54:23.401Z,8
